RJAN(METAR)
02/20 16:00
RJAN 200700Z 28022G33KT CAVOK 18/09 Q1009 RMK A2982=
戻る
トップページへ戻る
IMOC Co,.Ltd.